Time;durP1;ratioP1;P1;durP2;ratioP2;P2;SDS_P1;SDS_P2;PMS_P1;PMS_P2;Temp;Humidity;BMP_temperature;BMP_pressure;BME280_temperature;BME280_humidity;BME280_pressure;Samples;Min_cycle;Max_cycle;Signal;HPM_P1;HPM_P2
2022/10/02 04:01:02;;;;;;;10.83;3.47;;;13.30;99.90;;;;;;5713120;23;20498;-79
2022/10/02 04:03:33;;;;;;;7.10;3.60;;;13.30;99.90;;;;;;4917447;29;20446;-78
2022/10/02 04:06:04;;;;;;;8.07;3.60;;;13.30;99.90;;;;;;4916918;29;20974;-78
2022/10/02 04:08:35;;;;;;;13.10;3.80;;;13.30;99.90;;;;;;4917454;29;20447;-77
2022/10/02 04:11:08;;;;;;;4.53;2.90;;;13.30;99.90;;;;;;4910589;29;20476;-79
2022/10/02 04:13:38;;;;;;;5.60;2.93;;;13.40;99.90;;;;;;4898246;29;20981;-79
2022/10/02 04:16:11;;;;;;;12.70;3.50;;;13.40;99.90;;;;;;4951567;23;20502;-75
2022/10/02 04:18:46;;;;;;;10.80;3.60;;;13.40;99.90;;;;;;4936083;29;20456;-75
2022/10/02 04:21:19;;;;;;;8.10;3.23;;;13.30;99.90;;;;;;4935908;29;20462;-75
2022/10/02 04:23:51;;;;;;;11.67;5.23;;;13.30;99.90;;;;;;4936314;29;20446;-75
2022/10/02 04:26:23;;;;;;;11.57;3.17;;;13.30;99.90;;;;;;4926548;29;20471;-75
2022/10/02 04:28:54;;;;;;;10.87;3.23;;;13.30;99.90;;;;;;4917107;29;20444;-75
2022/10/02 04:31:26;;;;;;;12.00;3.60;;;13.30;99.90;;;;;;4916756;29;20931;-75
2022/10/02 04:33:52;;;;;;;7.63;3.60;;;13.30;99.90;;;;;;4916977;29;20453;-75
2022/10/02 04:36:29;;;;;;;9.23;3.33;;;13.30;99.90;;;;;;4916529;29;20531;-75
2022/10/02 04:39:15;;;;;;;6.67;3.10;;;13.40;99.90;;;;;;4916804;29;20463;-75
2022/10/02 04:42:06;;;;;;;9.60;3.13;;;13.40;99.90;;;;;;4916614;29;20459;-75
2022/10/02 04:44:47;;;;;;;10.27;3.47;;;13.40;99.90;;;;;;4916270;29;20447;-75
2022/10/02 04:47:36;;;;;;;11.30;3.47;;;13.40;99.90;;;;;;4916756;29;20478;-75
2022/10/02 04:50:19;;;;;;;13.17;3.77;;;13.40;99.90;;;;;;4916314;29;21041;-75
2022/10/02 04:53:02;;;;;;;12.40;3.93;;;13.30;99.90;;;;;;4916395;29;20447;-75
2022/10/02 04:55:55;;;;;;;12.60;4.00;;;13.30;99.90;;;;;;4916362;29;20480;-75
2022/10/02 04:58:46;;;;;;;11.90;4.00;;;13.30;99.90;;;;;;4916586;29;20444;-75
2022/10/02 05:01:23;;;;;;;15.00;3.60;;;13.30;99.90;;;;;;4916465;29;20456;-75
2022/10/02 05:04:09;;;;;;;12.87;5.20;;;13.30;99.90;;;;;;4916449;29;20478;-75
2022/10/02 05:06:49;;;;;;;16.30;5.90;;;13.40;99.90;;;;;;4916009;29;20494;-75
2022/10/02 05:09:23;;;;;;;10.70;4.20;;;13.40;99.90;;;;;;4916122;29;20489;-75
2022/10/02 05:12:11;;;;;;;11.33;3.90;;;13.40;99.90;;;;;;4916506;29;20459;-75
2022/10/02 05:15:03;;;;;;;14.60;4.13;;;13.30;99.90;;;;;;4915747;29;20986;-75
2022/10/02 05:17:56;;;;;;;11.63;3.20;;;13.20;99.90;;;;;;4915864;29;20829;-75
2022/10/02 05:20:50;;;;;;;8.77;3.33;;;13.20;99.90;;;;;;4916049;29;20459;-75
2022/10/02 05:23:39;;;;;;;9.20;3.33;;;13.10;99.90;;;;;;4916251;29;20442;-75
2022/10/02 05:26:30;;;;;;;10.63;3.10;;;13.10;99.90;;;;;;4915610;29;20490;-75
2022/10/02 05:29:25;;;;;;;14.50;4.00;;;13.00;99.90;;;;;;4915887;29;20886;-76
2022/10/02 05:32:09;;;;;;;11.10;2.90;;;13.00;99.90;;;;;;4915774;29;20459;-75
2022/10/02 05:34:49;;;;;;;11.37;2.80;;;13.00;99.90;;;;;;4915555;29;20921;-75
2022/10/02 05:37:32;;;;;;;7.20;3.17;;;13.00;99.90;;;;;;4916172;29;20486;-75
2022/10/02 05:40:09;;;;;;;14.83;3.60;;;13.00;99.90;;;;;;4916067;29;20443;-75
2022/10/02 05:42:38;;;;;;;7.13;3.67;;;13.00;99.90;;;;;;4915572;29;20474;-75
2022/10/02 05:45:16;;;;;;;17.10;3.90;;;13.00;99.90;;;;;;4915818;29;20873;-75
2022/10/02 05:47:45;;;;;;;11.27;3.90;;;13.00;99.90;;;;;;4915573;29;20938;-75
2022/10/02 05:50:17;;;;;;;15.37;4.20;;;13.00;99.90;;;;;;4915885;29;20499;-75
2022/10/02 05:52:53;;;;;;;13.07;3.90;;;13.00;99.90;;;;;;4915564;29;20458;-75
2022/10/02 05:55:25;;;;;;;8.23;3.73;;;13.00;99.90;;;;;;4915476;29;20447;-75
2022/10/02 05:57:55;;;;;;;5.33;2.80;;;13.00;99.90;;;;;;4915680;29;20462;-75
2022/10/02 06:00:32;;;;;;;9.50;3.53;;;13.10;99.90;;;;;;4915929;29;20443;-75
2022/10/02 06:03:08;;;;;;;11.60;3.00;;;13.10;99.90;;;;;;4919831;29;20471;-75
2022/10/02 06:05:45;;;;;;;12.53;4.43;;;13.10;99.90;;;;;;4919035;29;21047;-75
2022/10/02 06:08:16;;;;;;;11.77;3.60;;;13.00;99.90;;;;;;4919638;29;20465;-75
2022/10/02 06:10:47;;;;;;;9.10;3.60;;;13.00;99.90;;;;;;4919377;29;20495;-75
2022/10/02 06:13:22;;;;;;;14.07;4.30;;;13.00;99.90;;;;;;4919699;29;20702;-75
2022/10/02 06:15:52;;;;;;;7.60;3.60;;;13.10;99.90;;;;;;4918717;29;21028;-75
2022/10/02 06:18:22;;;;;;;11.63;3.40;;;13.10;99.90;;;;;;4919070;29;20462;-75
2022/10/02 06:20:53;;;;;;;9.50;3.40;;;13.10;99.90;;;;;;4919157;29;20527;-75
2022/10/02 06:23:25;;;;;;;8.20;3.50;;;13.10;99.90;;;;;;4919395;29;20447;-75
2022/10/02 06:25:55;;;;;;;10.50;3.27;;;13.10;99.90;;;;;;4919042;29;20483;-75
2022/10/02 06:28:27;;;;;;;11.40;4.10;;;13.10;99.90;;;;;;4918830;29;20466;-75
2022/10/02 06:31:00;;;;;;;8.60;3.40;;;13.20;99.90;;;;;;4919192;29;20479;-76
2022/10/02 06:33:30;;;;;;;13.43;4.37;;;13.20;99.90;;;;;;4919153;29;20451;-76
2022/10/02 06:36:26;;;;;;;9.40;4.90;;;13.20;99.90;;;;;;4918535;29;20975;-75
2022/10/02 06:39:17;;;;;;;13.00;6.00;;;13.20;99.90;;;;;;4918482;29;20826;-75
2022/10/02 06:41:53;;;;;;;11.27;6.67;;;13.30;99.90;;;;;;4918997;29;20959;-75
2022/10/02 06:44:27;;;;;;;8.63;6.03;;;13.30;99.90;;;;;;4918734;29;20808;-75
2022/10/02 06:47:06;;;;;;;18.23;6.20;;;13.40;99.90;;;;;;4918603;29;20482;-75
2022/10/02 06:49:46;;;;;;;14.70;5.60;;;13.40;99.90;;;;;;4918884;29;20462;-75
2022/10/02 06:52:24;;;;;;;11.77;5.37;;;13.40;99.90;;;;;;4918757;29;20519;-75
2022/10/02 06:55:16;;;;;;;13.03;5.63;;;13.40;99.90;;;;;;4918386;29;20465;-75
2022/10/02 06:58:00;;;;;;;11.07;5.27;;;13.40;99.90;;;;;;4918345;29;20455;-75
2022/10/02 07:00:27;;;;;;;13.47;6.00;;;13.40;99.90;;;;;;4918500;29;20987;-75
2022/10/02 07:03:24;;;;;;;11.90;4.60;;;13.40;99.90;;;;;;4918603;29;20470;-75
2022/10/02 07:06:11;;;;;;;12.43;5.20;;;13.50;99.90;;;;;;4917967;29;20486;-75
2022/10/02 07:08:53;;;;;;;16.07;5.33;;;13.50;99.90;;;;;;4918214;29;20965;-76
2022/10/02 07:11:27;;;;;;;11.50;5.97;;;13.50;99.90;;;;;;4918439;29;20479;-76
2022/10/02 07:14:10;;;;;;;15.03;6.60;;;13.50;99.90;;;;;;4917279;29;20450;-75
2022/10/02 07:17:11;;;;;;;12.23;4.87;;;13.40;99.90;;;;;;4917710;29;20497;-76
2022/10/02 07:19:59;;;;;;;8.83;4.07;;;13.40;99.90;;;;;;4918373;29;20486;-76
2022/10/02 07:22:38;;;;;;;12.67;4.63;;;13.40;99.90;;;;;;4918377;29;20443;-76
2022/10/02 07:25:38;;;;;;;13.70;4.80;;;13.40;99.90;;;;;;4918005;29;20542;-76
2022/10/02 07:28:13;;;;;;;10.20;4.97;;;13.40;99.90;;;;;;4918024;29;20563;-76
2022/10/02 07:30:51;;;;;;;9.17;4.13;;;13.40;99.90;;;;;;4917921;29;20498;-76
2022/10/02 07:33:29;;;;;;;12.43;4.23;;;13.40;99.90;;;;;;4917959;29;20471;-76
2022/10/02 07:36:06;;;;;;;7.80;3.63;;;13.40;99.90;;;;;;4917739;29;20494;-76
2022/10/02 07:39:03;;;;;;;11.20;4.30;;;13.40;99.90;;;;;;4918085;29;20454;-76
2022/10/02 07:41:57;;;;;;;8.30;4.10;;;13.50;99.90;;;;;;4884803;29;21051;-76
2022/10/02 07:44:55;;;;;;;7.50;4.80;;;13.50;99.90;;;;;;4917705;29;20447;-75
2022/10/02 07:47:35;;;;;;;14.40;4.90;;;13.60;99.90;;;;;;4917539;29;20475;-76
2022/10/02 07:50:08;;;;;;;10.43;3.93;;;13.60;99.90;;;;;;4917454;29;20991;-77
2022/10/02 07:52:45;;;;;;;10.70;4.40;;;13.60;99.90;;;;;;4917654;29;20491;-76
2022/10/02 07:55:17;;;;;;;6.63;3.93;;;13.60;99.90;;;;;;4917349;29;20459;-75
2022/10/02 07:57:54;;;;;;;7.77;4.37;;;13.60;99.90;;;;;;4917321;29;20948;-75
2022/10/02 08:00:26;;;;;;;8.13;5.40;;;13.70;99.90;;;;;;4917210;29;21017;-75
2022/10/02 08:02:59;;;;;;;10.47;4.87;;;13.70;99.90;;;;;;4917393;29;20444;-75
2022/10/02 08:05:29;;;;;;;7.07;4.77;;;13.70;99.90;;;;;;4917080;29;20487;-75
2022/10/02 08:08:00;;;;;;;11.80;5.43;;;13.80;99.90;;;;;;4917448;29;20452;-75
2022/10/02 08:10:36;;;;;;;10.90;6.73;;;13.80;99.90;;;;;;4917047;29;20587;-75
2022/10/02 08:13:10;;;;;;;9.47;6.43;;;13.80;99.90;;;;;;4917526;29;20447;-75
2022/10/02 08:15:43;;;;;;;11.13;5.67;;;13.90;99.90;;;;;;4916821;29;20490;-75
2022/10/02 08:18:17;;;;;;;7.03;4.40;;;13.90;99.90;;;;;;4917177;29;20463;-75
2022/10/02 08:20:46;;;;;;;7.50;4.43;;;13.90;99.90;;;;;;4917038;29;20459;-75
2022/10/02 08:23:21;;;;;;;7.50;3.50;;;13.90;99.90;;;;;;4916524;29;20459;-75
2022/10/02 08:25:57;;;;;;;7.10;4.03;;;13.90;99.90;;;;;;4916856;29;20475;-75
2022/10/02 08:28:29;;;;;;;4.87;3.57;;;13.80;99.90;;;;;;4917087;29;20467;-75
2022/10/02 08:30:57;;;;;;;7.03;4.67;;;13.90;99.90;;;;;;4916677;29;21011;-75
2022/10/02 08:33:24;;;;;;;5.73;4.53;;;13.90;99.90;;;;;;4916616;29;20465;-75
2022/10/02 08:36:17;;;;;;;6.90;4.53;;;13.90;99.90;;;;;;4916577;29;20491;-75
2022/10/02 08:38:48;;;;;;;7.10;4.60;;;13.90;99.90;;;;;;4916638;29;20467;-75
2022/10/02 08:41:41;;;;;;;7.03;4.40;;;13.90;99.90;;;;;;4916676;29;20455;-75
2022/10/02 08:44:28;;;;;;;6.70;4.23;;;14.00;99.90;;;;;;4916487;29;20482;-75
2022/10/02 08:47:22;;;;;;;6.10;4.30;;;14.00;99.90;;;;;;4916711;29;20490;-75
2022/10/02 08:50:29;;;;;;;7.07;5.30;;;14.00;99.90;;;;;;4916731;29;20518;-75
2022/10/02 08:53:45;;;;;;;5.83;4.60;;;14.00;99.90;;;;;;4916545;29;20526;-76
2022/10/02 08:56:30;;;;;;;11.40;4.67;;;14.00;99.90;;;;;;4916098;29;20941;-76
2022/10/02 08:59:32;;;;;;;6.43;4.10;;;14.00;99.90;;;;;;4916380;29;20463;-76
2022/10/02 09:02:54;;;;;;;7.17;4.50;;;14.00;99.90;;;;;;4916388;29;20467;-76
2022/10/02 09:05:46;;;;;;;7.93;4.83;;;14.00;99.90;;;;;;4915815;29;20459;-76
2022/10/02 09:08:57;;;;;;;7.63;4.30;;;14.00;99.90;;;;;;4916283;29;20831;-76
2022/10/02 09:11:57;;;;;;;6.53;4.90;;;14.00;99.90;;;;;;4915995;29;21039;-76
2022/10/02 09:14:46;;;;;;;7.90;4.80;;;14.00;99.90;;;;;;4892292;29;20455;-76
2022/10/02 09:17:39;;;;;;;7.67;4.90;;;13.90;99.90;;;;;;4915700;29;20570;-76
2022/10/02 09:20:34;;;;;;;8.37;5.10;;;13.90;99.90;;;;;;4904237;29;20826;-76
2022/10/02 09:23:36;;;;;;;8.40;5.13;;;13.80;99.90;;;;;;4916127;29;20481;-76
2022/10/02 09:26:16;;;;;;;9.57;5.60;;;13.90;99.90;;;;;;4915768;29;20485;-76
2022/10/02 09:29:08;;;;;;;7.97;5.00;;;13.90;99.90;;;;;;4915948;29;20462;-76
2022/10/02 09:32:10;;;;;;;6.93;5.10;;;13.90;99.90;;;;;;4916235;29;20495;-75
2022/10/02 09:35:13;;;;;;;5.70;4.00;;;14.00;99.90;;;;;;4915754;29;20474;-75
2022/10/02 09:38:13;;;;;;;5.80;4.17;;;14.00;99.90;;;;;;4916048;29;20454;-75
2022/10/02 09:41:08;;;;;;;6.70;3.00;;;14.00;99.90;;;;;;4915870;29;20472;-75
2022/10/02 09:44:12;;;;;;;4.67;3.40;;;14.00;99.90;;;;;;4915673;29;20460;-75
2022/10/02 09:47:18;;;;;;;2.80;2.60;;;13.90;99.90;;;;;;4905699;29;20499;-75
2022/10/02 09:50:23;;;;;;;5.47;3.10;;;14.00;99.90;;;;;;4906032;29;20471;-75
2022/10/02 09:53:29;;;;;;;2.53;2.30;;;14.00;99.90;;;;;;4915943;29;20474;-75
2022/10/02 09:56:23;;;;;;;2.40;2.20;;;13.90;99.90;;;;;;4915574;29;20483;-75
2022/10/02 09:59:30;;;;;;;1.83;1.70;;;14.00;99.90;;;;;;4915348;29;20470;-75
2022/10/02 10:02:27;;;;;;;3.10;2.10;;;14.00;99.90;;;;;;4915680;29;20461;-75
2022/10/02 10:05:27;;;;;;;1.67;1.30;;;14.00;99.90;;;;;;4914234;29;20478;-75
2022/10/02 10:08:25;;;;;;;2.20;1.93;;;14.00;99.90;;;;;;4912934;29;20840;-75
2022/10/02 10:11:17;;;;;;;1.67;1.50;;;14.00;99.90;;;;;;4915581;29;20483;-75
2022/10/02 10:14:09;;;;;;;1.70;1.60;;;14.00;99.90;;;;;;4915570;29;20463;-75
2022/10/02 10:17:12;;;;;;;4.77;2.63;;;13.80;99.90;;;;;;4931939;23;20507;-82
2022/10/02 10:20:01;;;;;;;3.27;2.70;;;13.80;99.90;;;;;;4919846;29;20458;-82
2022/10/02 10:23:02;;;;;;;5.63;3.60;;;13.80;99.90;;;;;;4919751;29;20444;-82
2022/10/02 10:25:47;;;;;;;1.77;1.67;;;13.90;99.90;;;;;;4919772;29;20937;-82
2022/10/02 10:28:43;;;;;;;1.70;1.50;;;13.90;99.90;;;;;;4900651;29;20747;-82
2022/10/02 10:31:59;;;;;;;2.87;1.80;;;13.90;99.90;;;;;;4876897;29;21039;-82
2022/10/02 10:34:55;;;;;;;2.67;2.43;;;13.90;99.90;;;;;;4900388;29;20456;-82
2022/10/02 10:40:51;;;;;;;3.13;2.70;;;13.90;99.90;;;;;;4901025;29;20442;-82
2022/10/02 10:43:57;;;;;;;4.73;3.77;;;13.90;99.90;;;;;;4901379;29;20460;-82
2022/10/02 10:46:40;;;;;;;2.20;2.00;;;13.90;99.90;;;;;;4900927;29;20563;-82
2022/10/02 10:49:43;;;;;;;1.50;1.40;;;14.00;99.90;;;;;;4904170;29;20534;-81
2022/10/02 10:52:17;;;;;;;1.63;1.53;;;14.00;99.90;;;;;;4855973;29;20542;-82
2022/10/02 10:55:00;;;;;;;1.53;1.43;;;14.00;99.90;;;;;;4904105;29;20444;-82
2022/10/02 10:57:38;;;;;;;2.03;1.60;;;14.00;99.90;;;;;;4904564;29;20499;-82
2022/10/02 11:00:23;;;;;;;1.80;1.70;;;14.00;99.90;;;;;;4904637;29;20470;-82
2022/10/02 11:03:31;;;;;;;2.53;2.10;;;14.10;99.90;;;;;;4905015;29;20464;-82
2022/10/02 11:06:49;;;;;;;1.70;1.50;;;14.10;99.90;;;;;;4850925;29;20487;-82
2022/10/02 11:09:47;;;;;;;2.67;2.40;;;14.00;99.90;;;;;;4871681;29;20937;-82
2022/10/02 11:12:43;;;;;;;2.23;2.03;;;14.00;99.90;;;;;;4904166;29;20500;-82
2022/10/02 11:15:28;;;;;;;2.90;2.10;;;14.00;99.90;;;;;;4904394;29;20497;-82
2022/10/02 11:18:27;;;;;;;4.10;2.80;;;14.00;99.90;;;;;;4903909;29;20472;-82
2022/10/02 11:21:11;;;;;;;4.67;2.40;;;14.00;99.90;;;;;;4904063;29;21008;-82
2022/10/02 11:23:58;;;;;;;2.10;1.90;;;14.00;99.90;;;;;;4904278;29;20525;-82
2022/10/02 11:26:52;;;;;;;3.70;2.70;;;14.00;99.90;;;;;;4903754;29;20479;-82
2022/10/02 11:30:03;;;;;;;2.00;1.80;;;14.00;99.90;;;;;;4904161;29;20471;-82
2022/10/02 11:32:56;;;;;;;3.30;2.50;;;14.00;99.90;;;;;;4898890;29;20563;-83
2022/10/02 11:35:47;;;;;;;6.90;2.50;;;13.90;99.90;;;;;;4903629;29;20456;-82
2022/10/02 11:38:54;;;;;;;3.00;2.13;;;13.90;99.90;;;;;;4904017;29;20489;-83
2022/10/02 11:41:46;;;;;;;2.43;1.80;;;13.80;99.90;;;;;;4904029;29;20837;-82
2022/10/02 11:44:26;;;;;;;3.87;2.03;;;13.90;99.90;;;;;;4904148;29;20448;-83
2022/10/02 11:47:14;;;;;;;4.97;2.10;;;13.90;99.90;;;;;;4904666;29;20476;-83
2022/10/02 11:50:14;;;;;;;2.60;2.20;;;13.90;99.90;;;;;;4904100;29;20538;-83
2022/10/02 11:53:03;;;;;;;4.97;2.77;;;13.90;99.90;;;;;;4904584;29;20495;-83
2022/10/02 11:55:45;;;;;;;3.30;2.30;;;14.00;99.90;;;;;;4903463;29;20471;-82
2022/10/02 11:58:21;;;;;;;3.47;1.87;;;14.00;99.90;;;;;;4904537;29;20452;-83
2022/10/02 12:01:13;;;;;;;2.40;1.17;;;14.00;99.90;;;;;;4904671;29;20466;-82
2022/10/02 12:04:01;;;;;;;3.00;1.83;;;14.00;99.90;;;;;;4905362;29;20851;-83
2022/10/02 12:06:50;;;;;;;2.20;1.27;;;14.00;99.90;;;;;;4904823;29;20503;-83
2022/10/02 12:09:30;;;;;;;2.80;2.10;;;14.00;99.90;;;;;;4905119;29;20543;-83
2022/10/02 12:12:08;;;;;;;2.47;2.10;;;14.10;99.90;;;;;;4904469;29;20858;-82
2022/10/02 12:14:42;;;;;;;3.27;2.27;;;14.10;99.90;;;;;;4904330;29;20495;-83
2022/10/02 12:17:23;;;;;;;1.83;1.30;;;14.10;99.90;;;;;;4904160;29;20545;-82
2022/10/02 12:28:45;;;;;;;2.07;1.87;;;14.20;99.90;;;;;;4904288;29;20448;-83
2022/10/02 12:31:20;;;;;;;1.70;1.60;;;14.30;99.90;;;;;;4904104;29;20454;-83
2022/10/02 12:34:00;;;;;;;3.47;1.87;;;14.30;99.90;;;;;;4903767;29;20448;-83
2022/10/02 12:36:50;;;;;;;2.20;1.30;;;14.30;99.90;;;;;;4903766;29;20491;-83
2022/10/02 12:39:33;;;;;;;1.40;1.20;;;14.30;99.90;;;;;;4902967;29;20492;-83
2022/10/02 12:42:40;;;;;;;2.00;1.30;;;14.30;99.90;;;;;;4903189;29;20460;-82
2022/10/02 12:45:35;;;;;;;1.33;1.20;;;14.30;99.90;;;;;;4903508;29;20440;-82
2022/10/02 12:48:22;;;;;;;1.87;1.20;;;14.30;99.90;;;;;;4898820;29;20468;-83
2022/10/02 12:51:16;;;;;;;1.20;1.10;;;14.30;99.90;;;;;;4904030;29;20433;-82
2022/10/02 12:54:26;;;;;;;1.13;1.03;;;14.30;99.90;;;;;;4901095;29;20464;-83
2022/10/02 12:57:51;;;;;;;1.70;1.40;;;14.30;99.90;;;;;;4904841;29;20539;-83
2022/10/02 13:00:20;;;;;;;2.00;1.80;;;14.20;99.90;;;;;;4905672;29;20472;-83
2022/10/02 13:03:14;;;;;;;2.63;2.03;;;14.20;99.90;;;;;;4906963;29;20452;-82
2022/10/02 13:06:22;;;;;;;3.63;2.13;;;14.20;99.90;;;;;;4910928;29;20460;-83
2022/10/02 13:09:12;;;;;;;3.77;3.40;;;14.20;99.90;;;;;;4909580;29;20470;-83
2022/10/02 13:11:54;;;;;;;5.80;3.30;;;14.20;99.90;;;;;;4910444;29;20495;-83
2022/10/02 13:14:35;;;;;;;2.30;1.80;;;14.20;99.90;;;;;;4909154;29;20821;-83
2022/10/02 13:17:13;;;;;;;1.90;1.63;;;14.10;99.90;;;;;;4905324;29;20881;-82
2022/10/02 13:19:52;;;;;;;1.60;1.50;;;14.10;99.90;;;;;;4901240;29;20501;-83
2022/10/02 13:22:30;;;;;;;1.73;1.40;;;14.10;99.90;;;;;;4900702;29;20523;-82
2022/10/02 13:25:18;;;;;;;0.80;0.80;;;14.10;99.90;;;;;;4899993;29;20468;-82
2022/10/02 13:27:53;;;;;;;4.17;1.37;;;14.00;99.90;;;;;;4900166;29;20484;-83
2022/10/02 13:30:21;;;;;;;1.77;1.67;;;14.00;99.90;;;;;;4900856;29;20450;-82
2022/10/02 13:33:04;;;;;;;1.93;1.73;;;13.90;99.90;;;;;;4900654;29;20594;-82
2022/10/02 13:35:53;;;;;;;3.00;1.73;;;13.90;99.90;;;;;;4900648;29;20540;-82
2022/10/02 13:38:56;;;;;;;1.40;1.30;;;13.90;99.90;;;;;;4901253;29;20467;-83
2022/10/02 13:41:34;;;;;;;3.33;1.40;;;14.00;99.90;;;;;;4891631;29;20468;-82
2022/10/02 13:44:13;;;;;;;2.80;1.63;;;14.00;99.90;;;;;;4901143;29;20468;-82
2022/10/02 13:46:52;;;;;;;3.20;1.23;;;14.10;99.90;;;;;;4901387;29;20480;-83
2022/10/02 13:49:31;;;;;;;2.73;1.80;;;14.10;99.90;;;;;;4901536;29;20984;-82
2022/10/02 13:52:04;;;;;;;2.60;2.20;;;14.10;99.90;;;;;;4901587;29;20506;-82
2022/10/02 13:54:47;;;;;;;2.40;1.90;;;14.10;99.90;;;;;;4901403;29;20460;-83
2022/10/02 13:57:28;;;;;;;2.80;2.17;;;14.10;99.90;;;;;;4902096;29;20507;-83
2022/10/02 14:00:14;;;;;;;2.10;2.00;;;14.10;99.90;;;;;;4901612;29;20453;-83
2022/10/02 14:03:04;;;;;;;3.00;1.93;;;14.20;99.90;;;;;;4901711;29;20453;-83
2022/10/02 14:05:41;;;;;;;2.87;1.40;;;14.20;99.90;;;;;;4901474;29;20445;-82
2022/10/02 14:08:30;;;;;;;2.10;1.90;;;14.20;99.90;;;;;;4902683;29;20452;-83
2022/10/02 14:11:07;;;;;;;3.00;2.50;;;14.10;99.90;;;;;;4901759;29;20456;-83
2022/10/02 14:13:44;;;;;;;2.23;2.03;;;14.10;99.90;;;;;;4902006;29;20495;-82
2022/10/02 14:16:33;;;;;;;2.20;2.00;;;14.20;99.90;;;;;;4901462;29;20499;-82
2022/10/02 14:19:20;;;;;;;3.00;2.07;;;14.10;99.90;;;;;;4900870;29;20463;-82
2022/10/02 14:21:55;;;;;;;2.90;2.63;;;14.00;99.90;;;;;;4901693;29;20453;-82
2022/10/02 14:28:09;;;;;;;2.20;1.90;;;14.00;99.90;;;;;;4881712;29;20531;-82
2022/10/02 14:30:59;;;;;;;2.53;2.00;;;14.00;99.90;;;;;;4905571;29;20456;-83
2022/10/02 14:33:38;;;;;;;2.93;2.13;;;14.00;99.90;;;;;;4902889;29;20526;-83
2022/10/02 14:36:12;;;;;;;2.17;1.97;;;14.10;99.90;;;;;;4904819;29;20494;-82
2022/10/02 14:39:01;;;;;;;5.13;4.20;;;14.10;99.90;;;;;;4904957;29;20996;-82
2022/10/02 14:41:50;;;;;;;6.90;4.50;;;14.20;99.90;;;;;;4905696;29;20436;-82
2022/10/02 14:44:48;;;;;;;10.93;8.77;;;14.20;99.90;;;;;;4905021;29;20478;-82
2022/10/02 14:47:52;;;;;;;7.80;3.33;;;14.20;99.90;;;;;;4904957;29;20471;-83
2022/10/02 14:50:49;;;;;;;4.00;3.53;;;14.20;99.90;;;;;;4874659;29;20475;-82
2022/10/02 14:53:47;;;;;;;4.20;3.17;;;14.20;99.90;;;;;;4905064;29;20494;-82
2022/10/02 14:56:47;;;;;;;3.70;2.90;;;14.20;99.90;;;;;;4905505;29;20521;-83
2022/10/02 14:59:27;;;;;;;3.10;2.80;;;14.20;99.90;;;;;;4907517;29;20464;-82
2022/10/02 15:02:10;;;;;;;2.63;2.30;;;14.10;99.90;;;;;;4906738;29;20448;-82
2022/10/02 15:04:47;;;;;;;3.17;2.97;;;14.10;99.90;;;;;;4907015;29;20547;-82
2022/10/02 15:07:18;;;;;;;2.50;2.30;;;14.00;99.90;;;;;;4906407;29;20487;-82
2022/10/02 15:10:07;;;;;;;2.60;2.40;;;14.10;99.90;;;;;;4905465;29;20479;-82
2022/10/02 15:12:45;;;;;;;2.80;2.57;;;14.00;99.90;;;;;;4902891;29;20957;-82
2022/10/02 15:15:17;;;;;;;2.60;2.40;;;14.10;99.90;;;;;;4904931;29;20452;-82
2022/10/02 15:17:58;;;;;;;5.67;3.00;;;14.10;99.90;;;;;;4905562;29;20492;-82
2022/10/02 15:20:32;;;;;;;5.63;2.67;;;14.10;99.90;;;;;;4901906;29;20464;-82
2022/10/02 15:23:02;;;;;;;3.57;3.20;;;14.00;99.90;;;;;;4902156;29;20487;-82
2022/10/02 15:25:54;;;;;;;2.67;2.47;;;14.00;99.90;;;;;;4901017;29;20468;-82
2022/10/02 15:28:29;;;;;;;3.07;2.23;;;13.90;99.90;;;;;;4901817;29;20487;-82
2022/10/02 15:31:03;;;;;;;2.67;2.20;;;13.90;99.90;;;;;;4901366;29;20450;-83
2022/10/02 15:33:35;;;;;;;3.13;2.83;;;13.90;99.90;;;;;;4900427;29;20980;-82
2022/10/02 15:36:30;;;;;;;5.30;3.80;;;14.00;99.90;;;;;;4901674;29;20483;-82
2022/10/02 15:39:26;;;;;;;5.73;4.93;;;13.90;99.90;;;;;;4899225;29;20464;-83
2022/10/02 15:42:04;;;;;;;6.00;5.40;;;13.90;99.90;;;;;;4901749;29;20455;-82
2022/10/02 15:44:54;;;;;;;5.30;4.43;;;13.90;99.90;;;;;;4901796;29;20467;-83
2022/10/02 15:47:39;;;;;;;4.70;4.00;;;13.90;99.90;;;;;;4902928;29;20484;-83
2022/10/02 15:50:20;;;;;;;5.50;3.50;;;13.90;99.90;;;;;;4903079;29;20472;-82
2022/10/02 15:53:04;;;;;;;4.17;3.20;;;13.90;99.90;;;;;;4902083;29;20492;-83
2022/10/02 15:55:41;;;;;;;3.70;3.40;;;13.80;99.90;;;;;;4901607;29;20445;-82
2022/10/02 15:58:19;;;;;;;3.93;3.50;;;13.80;99.90;;;;;;4902306;29;20459;-82
2022/10/02 16:01:07;;;;;;;6.03;4.00;;;13.80;99.90;;;;;;4902186;29;20453;-82
2022/10/02 16:03:43;;;;;;;4.77;3.60;;;13.90;99.90;;;;;;4901904;29;20519;-82
2022/10/02 16:06:18;;;;;;;4.90;4.43;;;13.90;99.90;;;;;;4902305;29;20494;-82
2022/10/02 16:09:20;;;;;;;6.10;5.50;;;13.90;99.90;;;;;;4902161;29;20441;-83
2022/10/02 16:12:13;;;;;;;7.83;6.90;;;13.90;99.90;;;;;;4902220;29;20443;-82
2022/10/02 16:14:58;;;;;;;9.30;6.20;;;13.90;99.90;;;;;;4902553;29;20441;-83
2022/10/02 16:17:53;;;;;;;7.83;4.80;;;13.90;99.90;;;;;;4963859;23;20498;-77
2022/10/02 16:20:36;;;;;;;7.40;5.90;;;13.90;99.90;;;;;;4936005;29;20829;-77
2022/10/02 16:23:33;;;;;;;6.90;5.00;;;13.80;99.90;;;;;;4936710;29;20449;-77
2022/10/02 16:26:22;;;;;;;5.20;4.10;;;13.70;99.90;;;;;;4933588;29;20465;-77
2022/10/02 16:29:05;;;;;;;6.70;4.50;;;13.70;99.90;;;;;;4917166;29;20548;-77
2022/10/02 16:31:44;;;;;;;7.43;4.87;;;13.70;99.90;;;;;;4917232;29;20981;-77
2022/10/02 16:34:22;;;;;;;5.17;4.20;;;13.60;99.90;;;;;;4916773;29;20882;-77
2022/10/02 16:36:52;;;;;;;14.03;9.30;;;13.60;99.90;;;;;;4916369;29;20983;-76
2022/10/02 16:39:47;;;;;;;41.77;24.20;;;13.60;99.90;;;;;;4917148;29;20463;-77
2022/10/02 16:42:25;;;;;;;18.23;12.17;;;13.60;99.90;;;;;;4917240;29;20571;-77
2022/10/02 16:45:20;;;;;;;12.13;7.23;;;13.60;99.90;;;;;;4916605;29;20467;-77
2022/10/02 16:47:51;;;;;;;9.90;7.17;;;13.60;99.90;;;;;;4916768;29;20489;-77
2022/10/02 16:50:23;;;;;;;8.90;6.10;;;13.60;99.90;;;;;;4916964;29;20454;-77
2022/10/02 16:52:59;;;;;;;6.83;4.97;;;13.60;99.90;;;;;;4916929;29;20475;-77
2022/10/02 16:55:33;;;;;;;7.53;5.47;;;13.50;99.90;;;;;;4916528;29;20955;-77
2022/10/02 16:58:11;;;;;;;9.33;5.47;;;13.50;99.90;;;;;;4916687;29;20466;-76
2022/10/02 17:00:50;;;;;;;5.83;4.80;;;13.60;99.90;;;;;;4916773;29;20527;-76
2022/10/02 17:03:27;;;;;;;4.93;4.30;;;13.60;99.90;;;;;;4916906;29;20436;-77
2022/10/02 17:05:59;;;;;;;5.47;4.10;;;13.50;99.90;;;;;;4916637;29;20542;-77
2022/10/02 17:08:34;;;;;;;3.63;2.73;;;13.60;99.90;;;;;;4916803;29;20752;-77
2022/10/02 17:11:19;;;;;;;3.30;2.30;;;13.50;99.90;;;;;;4916662;29;20485;-77
2022/10/02 17:14:05;;;;;;;3.00;2.70;;;13.40;99.90;;;;;;4916631;29;20495;-76
2022/10/02 17:16:39;;;;;;;5.73;2.90;;;13.40;99.90;;;;;;4916419;29;20494;-77
2022/10/02 17:19:20;;;;;;;2.87;2.33;;;13.40;99.90;;;;;;4916774;29;20466;-76
2022/10/02 17:21:52;;;;;;;4.17;3.10;;;13.30;99.90;;;;;;4916577;29;20450;-76
2022/10/02 17:24:32;;;;;;;4.13;3.70;;;13.30;99.90;;;;;;4916393;29;20540;-76
2022/10/02 17:27:17;;;;;;;11.77;5.17;;;13.30;99.90;;;;;;4916029;29;20486;-77
2022/10/02 17:29:58;;;;;;;7.77;5.13;;;13.20;99.90;;;;;;4916489;29;20951;-76
2022/10/02 17:32:38;;;;;;;8.20;5.30;;;13.20;99.90;;;;;;4916497;29;20535;-76
2022/10/02 17:35:15;;;;;;;8.10;5.60;;;13.20;99.90;;;;;;4915581;29;20461;-76
2022/10/02 17:38:16;;;;;;;8.23;6.27;;;13.20;99.90;;;;;;4915975;29;20483;-75
2022/10/02 17:40:53;;;;;;;7.47;6.70;;;13.20;99.90;;;;;;4909106;29;20826;-76
2022/10/02 17:43:29;;;;;;;6.77;5.47;;;13.30;99.90;;;;;;4915745;29;20455;-76
2022/10/02 17:46:19;;;;;;;5.87;5.27;;;13.30;99.90;;;;;;4915661;29;20475;-76
2022/10/02 17:48:56;;;;;;;7.80;6.03;;;13.30;99.90;;;;;;4916097;29;20796;-75
2022/10/02 17:51:34;;;;;;;6.90;5.40;;;13.40;99.90;;;;;;4916043;29;20446;-75
2022/10/02 17:57:34;;;;;;;8.07;6.97;;;13.40;99.90;;;;;;4915118;29;20454;-76
2022/10/02 18:00:12;;;;;;;8.30;7.20;;;13.50;99.90;;;;;;4913762;29;20471;-76
2022/10/02 18:03:00;;;;;;;10.10;7.03;;;13.50;99.90;;;;;;4915860;29;20494;-76
2022/10/02 18:05:36;;;;;;;17.63;13.30;;;13.60;99.90;;;;;;4913687;29;20681;-76
2022/10/02 18:08:31;;;;;;;20.77;18.50;;;13.60;99.90;;;;;;4915682;29;20483;-75
2022/10/02 18:11:03;;;;;;;19.13;14.50;;;13.70;99.90;;;;;;4915919;29;20444;-75
2022/10/02 18:13:52;;;;;;;9.47;8.43;;;13.60;99.90;;;;;;4915834;29;20484;-76
2022/10/02 18:16:28;;;;;;;8.40;7.60;;;13.60;99.90;;;;;;4915039;29;20499;-76
2022/10/02 18:19:17;;;;;;;8.73;6.20;;;13.60;99.90;;;;;;4915095;29;20498;-76
2022/10/02 18:21:55;;;;;;;9.50;7.20;;;13.50;99.90;;;;;;4915757;29;20447;-76
2022/10/02 18:24:32;;;;;;;8.40;7.00;;;13.40;99.90;;;;;;4915175;29;20463;-76
2022/10/02 18:27:24;;;;;;;10.47;7.33;;;13.40;99.90;;;;;;4915498;29;20493;-76
2022/10/02 18:30:14;;;;;;;6.67;5.40;;;13.40;99.90;;;;;;4915441;29;20492;-76